createdAt,value
2023-03-05T00:03:21.924Z,4.04
2023-03-05T00:08:23.561Z,4.04
2023-03-05T00:13:25.479Z,4.09
2023-03-05T00:18:26.974Z,4.22
2023-03-05T00:23:28.536Z,4.24
2023-03-05T00:28:30.027Z,4.31
2023-03-05T00:33:31.572Z,4.30
2023-03-05T00:38:34.629Z,4.30
2023-03-05T00:43:36.192Z,4.31
2023-03-05T00:48:37.718Z,4.28
2023-03-05T00:53:39.333Z,4.24
2023-03-05T00:58:40.925Z,4.23
2023-03-05T01:03:42.525Z,4.29
2023-03-05T01:08:44.874Z,4.34
2023-03-05T01:13:46.505Z,4.32
2023-03-05T01:18:48.059Z,4.28
2023-03-05T01:23:49.605Z,4.27
2023-03-05T01:28:51.157Z,4.26
2023-03-05T01:33:53.839Z,4.33
2023-03-05T01:38:55.495Z,4.34
2023-03-05T01:43:57.075Z,4.36
2023-03-05T01:49:15.526Z,4.33
2023-03-05T01:54:20.941Z,4.30
2023-03-05T01:59:24.802Z,4.27
2023-03-05T02:04:32.381Z,4.26
2023-03-05T02:09:34.034Z,4.31
2023-03-05T02:14:36.510Z,4.35
2023-03-05T02:20:02.221Z,4.37
2023-03-05T02:25:23.603Z,4.38
2023-03-05T02:30:25.903Z,4.42
2023-03-05T02:35:27.605Z,4.45
2023-03-05T02:40:29.360Z,4.50
2023-03-05T02:45:31.053Z,4.45
2023-03-05T02:50:34.093Z,4.45
2023-03-05T02:55:35.685Z,4.49
2023-03-05T03:00:37.408Z,4.54
2023-03-05T03:05:39.214Z,4.51
2023-03-05T03:10:40.807Z,4.55
2023-03-05T03:15:42.367Z,4.60
2023-03-05T03:20:43.854Z,4.65
2023-03-05T03:25:45.339Z,4.68
2023-03-05T03:30:46.983Z,4.67
2023-03-05T03:35:48.602Z,4.73
2023-03-05T03:40:50.209Z,4.71
2023-03-05T03:45:51.763Z,4.72
2023-03-05T03:50:53.301Z,4.72
2023-03-05T03:55:58.805Z,4.76
2023-03-05T04:01:00.661Z,4.79
2023-03-05T04:06:02.277Z,4.84
2023-03-05T04:11:03.995Z,4.87
2023-03-05T04:16:06.050Z,4.89
2023-03-05T04:21:07.859Z,4.91
2023-03-05T04:26:09.396Z,4.91
2023-03-05T04:31:11.001Z,4.91
2023-03-05T04:36:12.568Z,4.89
2023-03-05T04:41:14.117Z,4.90
2023-03-05T04:46:15.715Z,4.91
2023-03-05T04:51:17.203Z,4.92
2023-03-05T04:56:18.727Z,4.95
2023-03-05T05:01:21.480Z,4.96
2023-03-05T05:06:23.047Z,4.96
2023-03-05T05:11:24.745Z,4.98
2023-03-05T05:16:26.354Z,4.97
2023-03-05T05:21:27.915Z,4.99
2023-03-05T05:26:29.740Z,4.99
2023-03-05T05:31:31.452Z,4.98
2023-03-05T05:36:33.155Z,4.99
2023-03-05T05:41:34.765Z,4.99
2023-03-05T05:46:36.407Z,4.99
2023-03-05T05:51:38.052Z,4.97
2023-03-05T05:56:39.710Z,4.98
2023-03-05T06:01:41.293Z,4.96
2023-03-05T06:06:42.859Z,4.97
2023-03-05T06:11:44.400Z,4.98
2023-03-05T06:16:46.375Z,5.02
2023-03-05T06:21:47.967Z,5.03
2023-03-05T06:26:49.582Z,5.06
2023-03-05T06:31:51.145Z,5.09
2023-03-05T06:36:52.703Z,5.11
2023-03-05T06:41:54.277Z,5.13
2023-03-05T06:46:55.820Z,5.15
2023-03-05T06:51:57.298Z,5.14
2023-03-05T06:56:59.201Z,5.16
2023-03-05T07:02:00.805Z,5.17
2023-03-05T07:07:02.393Z,5.19
2023-03-05T07:12:04.204Z,5.23
2023-03-05T07:17:07.029Z,5.28
2023-03-05T07:22:08.954Z,5.30
2023-03-05T07:27:10.509Z,5.30
2023-03-05T07:32:12.107Z,5.35
2023-03-05T07:37:14.136Z,5.37
2023-03-05T07:42:15.731Z,5.37
2023-03-05T07:47:32.691Z,5.37
2023-03-05T07:52:34.184Z,5.39
2023-03-05T07:57:38.067Z,5.41
2023-03-05T08:02:39.655Z,5.42
2023-03-05T08:07:41.246Z,5.41
2023-03-05T08:12:42.933Z,5.37
2023-03-05T08:17:44.470Z,5.35
2023-03-05T08:22:46.305Z,5.39
2023-03-05T08:27:48.296Z,5.41
2023-03-05T08:32:50.070Z,5.42
2023-03-05T08:37:51.846Z,5.41
2023-03-05T08:42:53.419Z,5.34
2023-03-05T08:47:56.240Z,5.38
2023-03-05T08:52:57.788Z,5.39
2023-03-05T08:57:59.284Z,5.41
2023-03-05T09:03:00.879Z,5.41
2023-03-05T09:08:02.403Z,5.48
2023-03-05T09:13:04.279Z,5.48
2023-03-05T09:18:06.611Z,5.53
2023-03-05T09:23:08.102Z,5.46
2023-03-05T09:28:10.110Z,5.37
2023-03-05T09:33:11.719Z,5.39
2023-03-05T09:38:13.230Z,5.42
2023-03-05T09:43:30.101Z,5.42
2023-03-05T09:48:52.834Z,5.27
2023-03-05T09:54:06.499Z,5.21
2023-03-05T09:59:23.065Z,5.22
2023-03-05T10:04:34.537Z,5.28
2023-03-05T10:10:00.932Z,5.34
2023-03-05T10:15:03.232Z,5.36
2023-03-05T10:20:33.268Z,5.35
2023-03-05T10:25:53.532Z,5.35
2023-03-05T10:31:07.646Z,5.35
2023-03-05T10:36:24.158Z,5.34
2023-03-05T10:41:33.687Z,5.35
2023-03-05T10:46:39.718Z,5.38
2023-03-05T10:51:50.263Z,5.39
2023-03-05T10:57:19.800Z,5.37
2023-03-05T11:02:23.068Z,5.35
2023-03-05T11:07:24.533Z,5.38
2023-03-05T11:12:28.704Z,5.42
2023-03-05T11:17:38.432Z,5.47
2023-03-05T11:22:40.097Z,5.54
2023-03-05T11:27:52.000Z,5.59
2023-03-05T11:33:20.308Z,5.65
2023-03-05T11:38:27.286Z,5.72
2023-03-05T11:43:32.896Z,5.72
2023-03-05T11:48:39.826Z,5.68
2023-03-05T11:53:45.131Z,5.70
2023-03-05T11:58:52.241Z,5.70
2023-03-05T12:03:55.482Z,5.66
2023-03-05T12:09:02.340Z,5.64
2023-03-05T12:14:25.745Z,5.61
2023-03-05T12:19:38.847Z,5.63
2023-03-05T12:24:40.888Z,5.65
2023-03-05T12:29:51.364Z,5.62
2023-03-05T12:35:04.471Z,5.56
2023-03-05T12:40:08.960Z,5.48
2023-03-05T12:45:14.391Z,5.39
2023-03-05T12:50:28.169Z,5.31
2023-03-05T12:55:34.656Z,5.25
2023-03-05T13:00:44.845Z,5.24
2023-03-05T13:05:55.386Z,5.29
2023-03-05T13:11:00.889Z,5.29
2023-03-05T13:16:03.820Z,5.33
2023-03-05T13:21:14.531Z,5.32
2023-03-05T13:26:18.856Z,5.35
2023-03-05T13:31:23.068Z,5.31
2023-03-05T13:36:26.448Z,5.36
2023-03-05T13:41:28.794Z,5.37
2023-03-05T13:46:32.542Z,5.30
2023-03-05T13:51:49.197Z,5.34
2023-03-05T13:57:02.767Z,5.39
2023-03-05T14:02:17.171Z,5.43
2023-03-05T14:07:39.736Z,5.46
2023-03-05T14:12:43.557Z,5.45
2023-03-05T14:17:45.431Z,5.40
2023-03-05T14:22:48.608Z,5.42
2023-03-05T14:27:50.287Z,5.42
2023-03-05T14:32:55.460Z,5.52
2023-03-05T14:37:59.425Z,5.61
2023-03-05T14:43:10.525Z,5.68
2023-03-05T14:48:14.984Z,5.61
2023-03-05T14:53:19.521Z,5.56
2023-03-05T14:58:25.108Z,5.56
2023-03-05T15:03:27.916Z,5.62
2023-03-05T15:08:31.839Z,5.69
2023-03-05T15:13:34.660Z,5.74
2023-03-05T15:18:36.359Z,5.80
2023-03-05T15:23:38.581Z,5.82
2023-03-05T15:28:40.882Z,5.77
2023-03-05T15:33:42.430Z,5.76
2023-03-05T15:38:46.594Z,5.72
2023-03-05T15:43:48.102Z,5.71
2023-03-05T15:48:50.268Z,5.67
2023-03-05T15:53:52.220Z,5.64
2023-03-05T15:58:53.925Z,5.62
2023-03-05T16:03:55.534Z,5.65
2023-03-05T16:09:03.556Z,5.71
2023-03-05T16:14:08.889Z,5.73
2023-03-05T16:19:14.887Z,5.75
2023-03-05T16:24:16.843Z,5.73
2023-03-05T16:29:18.506Z,5.75
2023-03-05T16:34:20.278Z,5.73
2023-03-05T16:39:22.037Z,5.73
2023-03-05T16:44:23.674Z,5.75
2023-03-05T16:49:25.212Z,5.73
2023-03-05T16:54:26.909Z,5.74
2023-03-05T16:59:29.545Z,5.77
2023-03-05T17:04:31.280Z,5.76
2023-03-05T17:09:33.200Z,5.76
2023-03-05T17:14:34.728Z,5.75
2023-03-05T17:19:36.366Z,5.75
2023-03-05T17:24:38.455Z,5.77
2023-03-05T17:29:40.096Z,5.75
2023-03-05T17:34:43.262Z,5.72
2023-03-05T17:39:44.798Z,5.69
2023-03-05T17:49:49.140Z,5.53
2023-03-05T17:54:53.075Z,5.50
2023-03-05T17:59:55.028Z,5.53
2023-03-05T18:04:56.612Z,5.52
2023-03-05T18:09:58.096Z,5.54
2023-03-05T18:14:59.680Z,5.55
2023-03-05T18:20:03.940Z,5.55
2023-03-05T18:25:06.061Z,5.54
2023-03-05T18:30:09.056Z,5.52
2023-03-05T18:35:10.854Z,5.51
2023-03-05T18:40:16.878Z,5.52
2023-03-05T18:45:22.145Z,5.52
2023-03-05T18:50:26.609Z,5.52
2023-03-05T18:55:29.753Z,5.53
2023-03-05T19:00:32.050Z,5.52
2023-03-05T19:05:34.725Z,5.54
2023-03-05T19:10:36.662Z,5.58
2023-03-05T19:15:40.282Z,5.57
2023-03-05T19:20:41.850Z,5.58
2023-03-05T19:25:43.739Z,5.54
2023-03-05T19:30:49.928Z,5.52
2023-03-05T19:35:51.557Z,5.51
2023-03-05T19:40:53.180Z,5.51
2023-03-05T19:46:03.609Z,5.51
2023-03-05T19:51:14.988Z,5.51
2023-03-05T19:56:17.941Z,5.52
2023-03-05T20:01:22.442Z,5.52
2023-03-05T20:06:25.888Z,5.51
2023-03-05T20:11:28.420Z,5.48
2023-03-05T20:16:36.153Z,5.48
2023-03-05T20:21:40.777Z,5.49
2023-03-05T20:26:44.520Z,5.49
2023-03-05T20:31:47.115Z,5.41
2023-03-05T20:36:49.210Z,5.38
2023-03-05T20:41:51.199Z,5.36
2023-03-05T20:47:02.531Z,5.32
2023-03-05T20:52:04.356Z,5.30
2023-03-05T20:57:05.915Z,5.29
2023-03-05T21:02:09.579Z,5.30
2023-03-05T21:07:11.251Z,5.30
2023-03-05T21:12:12.937Z,5.30
2023-03-05T21:17:14.411Z,5.31
2023-03-05T21:22:15.959Z,5.31
2023-03-05T21:27:17.616Z,5.33
2023-03-05T21:32:19.426Z,5.36
2023-03-05T21:37:20.966Z,5.39
2023-03-05T21:42:22.584Z,5.38
2023-03-05T21:47:24.090Z,5.36
2023-03-05T21:52:26.038Z,5.36
2023-03-05T21:57:27.848Z,5.36
2023-03-05T22:02:29.477Z,5.38
2023-03-05T22:07:31.353Z,5.39
2023-03-05T22:12:53.030Z,5.35
2023-03-05T22:17:54.603Z,5.32
2023-03-05T22:22:56.136Z,5.29
2023-03-05T22:27:57.664Z,5.27
2023-03-05T22:33:00.999Z,5.24
2023-03-05T22:38:02.550Z,5.24
2023-03-05T22:43:04.680Z,5.22
2023-03-05T22:48:07.124Z,5.24
2023-03-05T22:53:08.747Z,5.23
2023-03-05T22:58:10.318Z,5.25
2023-03-05T23:03:11.979Z,5.25
2023-03-05T23:08:13.529Z,5.25
2023-03-05T23:13:15.050Z,5.24
2023-03-05T23:18:16.597Z,5.24
2023-03-05T23:23:18.052Z,5.22
2023-03-05T23:28:20.511Z,5.22
2023-03-05T23:33:23.831Z,5.22
2023-03-05T23:38:29.571Z,5.21
2023-03-05T23:43:31.290Z,5.19
2023-03-05T23:48:32.776Z,5.18
2023-03-05T23:53:34.252Z,5.20
2023-03-05T23:58:37.245Z,5.20
